sensor_id;sensor_type;location;lat;lon;timestamp;temperature;humidity
5200;DHT22;2619;47.868;11.892;2023-05-23T00:01:04;13.30;99.90
5200;DHT22;2619;47.868;11.892;2023-05-23T00:03:33;13.30;99.90
5200;DHT22;2619;47.868;11.892;2023-05-23T00:06:00;13.30;99.90
5200;DHT22;2619;47.868;11.892;2023-05-23T00:08:26;13.20;99.90
5200;DHT22;2619;47.868;11.892;2023-05-23T00:10:52;13.20;99.90
5200;DHT22;2619;47.868;11.892;2023-05-23T00:13:17;13.30;99.90
5200;DHT22;2619;47.868;11.892;2023-05-23T00:15:43;13.30;99.90
5200;DHT22;2619;47.868;11.892;2023-05-23T00:18:09;13.40;99.90
5200;DHT22;2619;47.868;11.892;2023-05-23T00:20:39;13.30;99.90
5200;DHT22;2619;47.868;11.892;2023-05-23T00:23:08;13.30;99.90
5200;DHT22;2619;47.868;11.892;2023-05-23T00:25:38;13.40;99.90
5200;DHT22;2619;47.868;11.892;2023-05-23T00:28:05;13.30;99.90
5200;DHT22;2619;47.868;11.892;2023-05-23T00:30:31;13.30;99.90
5200;DHT22;2619;47.868;11.892;2023-05-23T00:32:57;13.30;99.90
5200;DHT22;2619;47.868;11.892;2023-05-23T00:35:24;13.40;99.90
5200;DHT22;2619;47.868;11.892;2023-05-23T00:37:50;13.40;99.90
5200;DHT22;2619;47.868;11.892;2023-05-23T00:40:19;13.40;99.90
5200;DHT22;2619;47.868;11.892;2023-05-23T00:42:46;13.40;99.90
5200;DHT22;2619;47.868;11.892;2023-05-23T00:45:13;13.40;99.90
5200;DHT22;2619;47.868;11.892;2023-05-23T00:47:39;13.50;99.90
5200;DHT22;2619;47.868;11.892;2023-05-23T00:50:07;13.50;99.90
5200;DHT22;2619;47.868;11.892;2023-05-23T00:52:33;13.40;99.90
5200;DHT22;2619;47.868;11.892;2023-05-23T00:54:58;13.40;99.90
5200;DHT22;2619;47.868;11.892;2023-05-23T00:57:24;13.40;99.90
5200;DHT22;2619;47.868;11.892;2023-05-23T00:59:51;13.30;99.90
5200;DHT22;2619;47.868;11.892;2023-05-23T01:02:17;13.20;99.90
5200;DHT22;2619;47.868;11.892;2023-05-23T01:04:43;13.10;99.90
5200;DHT22;2619;47.868;11.892;2023-05-23T01:07:09;13.10;99.90
5200;DHT22;2619;47.868;11.892;2023-05-23T01:09:35;13.10;99.90
5200;DHT22;2619;47.868;11.892;2023-05-23T01:15:22;13.20;99.90
5200;DHT22;2619;47.868;11.892;2023-05-23T01:18:09;13.20;99.90
5200;DHT22;2619;47.868;11.892;2023-05-23T01:20:40;13.20;99.90
5200;DHT22;2619;47.868;11.892;2023-05-23T01:25:55;13.20;99.90
5200;DHT22;2619;47.868;11.892;2023-05-23T01:28:31;13.20;99.90
5200;DHT22;2619;47.868;11.892;2023-05-23T01:30:59;13.30;99.90
5200;DHT22;2619;47.868;11.892;2023-05-23T01:33:27;13.20;99.90
5200;DHT22;2619;47.868;11.892;2023-05-23T01:35:55;13.20;99.90
5200;DHT22;2619;47.868;11.892;2023-05-23T01:38:22;13.20;99.90
5200;DHT22;2619;47.868;11.892;2023-05-23T01:40:48;13.10;99.90
5200;DHT22;2619;47.868;11.892;2023-05-23T01:43:14;13.10;99.90
5200;DHT22;2619;47.868;11.892;2023-05-23T01:45:40;13.00;99.90
5200;DHT22;2619;47.868;11.892;2023-05-23T01:48:07;13.00;99.90
5200;DHT22;2619;47.868;11.892;2023-05-23T01:50:34;12.90;99.90
5200;DHT22;2619;47.868;11.892;2023-05-23T01:53:00;13.00;99.90
5200;DHT22;2619;47.868;11.892;2023-05-23T01:55:25;13.00;99.90
5200;DHT22;2619;47.868;11.892;2023-05-23T01:57:54;13.00;99.90
5200;DHT22;2619;47.868;11.892;2023-05-23T02:00:20;13.00;99.90
5200;DHT22;2619;47.868;11.892;2023-05-23T02:02:46;13.10;99.90
5200;DHT22;2619;47.868;11.892;2023-05-23T02:05:12;13.10;99.90
5200;DHT22;2619;47.868;11.892;2023-05-23T02:07:37;13.10;99.90
5200;DHT22;2619;47.868;11.892;2023-05-23T02:10:06;13.10;99.90
5200;DHT22;2619;47.868;11.892;2023-05-23T02:12:32;13.10;99.90
5200;DHT22;2619;47.868;11.892;2023-05-23T02:14:57;13.10;99.90
5200;DHT22;2619;47.868;11.892;2023-05-23T02:17:23;13.20;99.90
5200;DHT22;2619;47.868;11.892;2023-05-23T02:19:49;13.30;99.90
5200;DHT22;2619;47.868;11.892;2023-05-23T02:22:15;13.40;99.90
5200;DHT22;2619;47.868;11.892;2023-05-23T02:24:40;13.40;99.90
5200;DHT22;2619;47.868;11.892;2023-05-23T02:27:06;13.50;99.90
5200;DHT22;2619;47.868;11.892;2023-05-23T02:29:32;13.60;99.90
5200;DHT22;2619;47.868;11.892;2023-05-23T02:31:58;13.60;99.90
5200;DHT22;2619;47.868;11.892;2023-05-23T02:34:23;13.70;99.90
5200;DHT22;2619;47.868;11.892;2023-05-23T02:36:49;13.90;99.90
5200;DHT22;2619;47.868;11.892;2023-05-23T02:39:15;13.90;99.90
5200;DHT22;2619;47.868;11.892;2023-05-23T02:41:41;13.90;99.90
5200;DHT22;2619;47.868;11.892;2023-05-23T02:44:07;14.10;99.90
5200;DHT22;2619;47.868;11.892;2023-05-23T02:46:32;14.10;99.90
5200;DHT22;2619;47.868;11.892;2023-05-23T02:48:58;14.20;99.90
5200;DHT22;2619;47.868;11.892;2023-05-23T02:51:23;14.30;99.90
5200;DHT22;2619;47.868;11.892;2023-05-23T02:53:49;14.50;99.90
5200;DHT22;2619;47.868;11.892;2023-05-23T02:56:14;14.60;99.90
5200;DHT22;2619;47.868;11.892;2023-05-23T02:58:40;14.70;99.90
5200;DHT22;2619;47.868;11.892;2023-05-23T03:01:06;14.70;99.90
5200;DHT22;2619;47.868;11.892;2023-05-23T03:03:33;14.90;99.90
5200;DHT22;2619;47.868;11.892;2023-05-23T03:06:01;14.90;99.90
5200;DHT22;2619;47.868;11.892;2023-05-23T03:08:30;15.20;99.90
5200;DHT22;2619;47.868;11.892;2023-05-23T03:10:56;15.30;99.90
5200;DHT22;2619;47.868;11.892;2023-05-23T03:13:21;15.50;99.90
5200;DHT22;2619;47.868;11.892;2023-05-23T03:15:47;15.60;99.90
5200;DHT22;2619;47.868;11.892;2023-05-23T03:18:13;15.50;99.90
5200;DHT22;2619;47.868;11.892;2023-05-23T03:20:38;15.50;99.90
5200;DHT22;2619;47.868;11.892;2023-05-23T03:23:04;15.50;99.90
5200;DHT22;2619;47.868;11.892;2023-05-23T03:25:29;15.60;99.90
5200;DHT22;2619;47.868;11.892;2023-05-23T03:27:55;15.60;99.90
5200;DHT22;2619;47.868;11.892;2023-05-23T03:30:21;15.70;99.90
5200;DHT22;2619;47.868;11.892;2023-05-23T03:32:46;15.70;99.90
5200;DHT22;2619;47.868;11.892;2023-05-23T03:35:12;15.70;99.90
5200;DHT22;2619;47.868;11.892;2023-05-23T03:37:38;15.70;99.90
5200;DHT22;2619;47.868;11.892;2023-05-23T03:40:04;15.70;99.90
5200;DHT22;2619;47.868;11.892;2023-05-23T03:42:29;15.70;99.90
5200;DHT22;2619;47.868;11.892;2023-05-23T03:44:55;15.70;99.90
5200;DHT22;2619;47.868;11.892;2023-05-23T03:47:21;15.70;99.90
5200;DHT22;2619;47.868;11.892;2023-05-23T03:49:48;15.70;99.90
5200;DHT22;2619;47.868;11.892;2023-05-23T03:52:14;15.70;99.90
5200;DHT22;2619;47.868;11.892;2023-05-23T03:54:40;15.70;99.90
5200;DHT22;2619;47.868;11.892;2023-05-23T03:57:05;15.80;99.90
5200;DHT22;2619;47.868;11.892;2023-05-23T03:59:32;15.70;99.90
5200;DHT22;2619;47.868;11.892;2023-05-23T04:01:58;15.70;99.90
5200;DHT22;2619;47.868;11.892;2023-05-23T04:04:25;15.70;99.90
5200;DHT22;2619;47.868;11.892;2023-05-23T04:06:51;15.70;99.90
5200;DHT22;2619;47.868;11.892;2023-05-23T04:09:17;15.70;99.90
5200;DHT22;2619;47.868;11.892;2023-05-23T04:11:42;15.70;99.90
5200;DHT22;2619;47.868;11.892;2023-05-23T04:14:08;15.70;99.90
5200;DHT22;2619;47.868;11.892;2023-05-23T04:16:36;15.60;99.90
5200;DHT22;2619;47.868;11.892;2023-05-23T04:19:02;15.60;99.90
5200;DHT22;2619;47.868;11.892;2023-05-23T04:21:28;15.60;99.90
5200;DHT22;2619;47.868;11.892;2023-05-23T04:23:54;15.60;99.90
5200;DHT22;2619;47.868;11.892;2023-05-23T04:26:20;15.70;99.90
5200;DHT22;2619;47.868;11.892;2023-05-23T04:28:46;15.70;99.90
5200;DHT22;2619;47.868;11.892;2023-05-23T04:31:13;15.80;99.90
5200;DHT22;2619;47.868;11.892;2023-05-23T04:33:39;15.90;99.90
5200;DHT22;2619;47.868;11.892;2023-05-23T04:36:05;15.90;99.90
5200;DHT22;2619;47.868;11.892;2023-05-23T04:38:33;15.90;99.90
5200;DHT22;2619;47.868;11.892;2023-05-23T04:40:59;15.90;99.90
5200;DHT22;2619;47.868;11.892;2023-05-23T04:43:25;16.00;99.90
5200;DHT22;2619;47.868;11.892;2023-05-23T04:45:53;16.00;99.90
5200;DHT22;2619;47.868;11.892;2023-05-23T04:48:19;16.10;99.90
5200;DHT22;2619;47.868;11.892;2023-05-23T04:50:47;16.30;99.90
5200;DHT22;2619;47.868;11.892;2023-05-23T04:53:15;16.40;99.90
5200;DHT22;2619;47.868;11.892;2023-05-23T04:55:41;16.50;99.90
5200;DHT22;2619;47.868;11.892;2023-05-23T04:58:06;16.60;99.90
5200;DHT22;2619;47.868;11.892;2023-05-23T05:00:32;16.70;99.90
5200;DHT22;2619;47.868;11.892;2023-05-23T05:02:58;16.80;99.90
5200;DHT22;2619;47.868;11.892;2023-05-23T05:05:24;16.90;99.90
5200;DHT22;2619;47.868;11.892;2023-05-23T05:07:50;17.10;99.90
5200;DHT22;2619;47.868;11.892;2023-05-23T05:10:15;17.10;99.90
5200;DHT22;2619;47.868;11.892;2023-05-23T05:12:45;17.20;99.90
5200;DHT22;2619;47.868;11.892;2023-05-23T05:15:12;17.30;99.90
5200;DHT22;2619;47.868;11.892;2023-05-23T05:17:38;17.40;99.90
5200;DHT22;2619;47.868;11.892;2023-05-23T05:20:05;17.40;99.90
5200;DHT22;2619;47.868;11.892;2023-05-23T05:22:36;17.40;99.90
5200;DHT22;2619;47.868;11.892;2023-05-23T05:25:05;17.40;99.90
5200;DHT22;2619;47.868;11.892;2023-05-23T05:27:32;17.50;99.90
5200;DHT22;2619;47.868;11.892;2023-05-23T05:29:57;17.50;99.90
5200;DHT22;2619;47.868;11.892;2023-05-23T05:32:28;17.70;99.90
5200;DHT22;2619;47.868;11.892;2023-05-23T05:34:59;17.70;99.90
5200;DHT22;2619;47.868;11.892;2023-05-23T05:37:25;18.00;99.90
5200;DHT22;2619;47.868;11.892;2023-05-23T05:39:51;18.00;99.90
5200;DHT22;2619;47.868;11.892;2023-05-23T05:42:17;18.00;99.90
5200;DHT22;2619;47.868;11.892;2023-05-23T05:44:43;18.10;99.90
5200;DHT22;2619;47.868;11.892;2023-05-23T05:47:08;18.30;99.90
5200;DHT22;2619;47.868;11.892;2023-05-23T05:49:34;18.50;99.90
5200;DHT22;2619;47.868;11.892;2023-05-23T05:52:00;18.60;99.90
5200;DHT22;2619;47.868;11.892;2023-05-23T05:54:25;18.80;99.90
5200;DHT22;2619;47.868;11.892;2023-05-23T05:56:51;18.70;99.90
5200;DHT22;2619;47.868;11.892;2023-05-23T05:59:17;18.80;99.90
5200;DHT22;2619;47.868;11.892;2023-05-23T06:01:42;18.80;99.90
5200;DHT22;2619;47.868;11.892;2023-05-23T06:04:09;18.90;99.90
5200;DHT22;2619;47.868;11.892;2023-05-23T06:06:35;18.80;99.90
5200;DHT22;2619;47.868;11.892;2023-05-23T06:09:00;18.80;99.90
5200;DHT22;2619;47.868;11.892;2023-05-23T06:11:26;18.80;99.90
5200;DHT22;2619;47.868;11.892;2023-05-23T06:13:52;18.70;99.90
5200;DHT22;2619;47.868;11.892;2023-05-23T06:16:17;18.80;99.90
5200;DHT22;2619;47.868;11.892;2023-05-23T06:18:43;19.00;99.90
5200;DHT22;2619;47.868;11.892;2023-05-23T06:21:09;19.20;99.90
5200;DHT22;2619;47.868;11.892;2023-05-23T06:23:35;19.30;99.90
5200;DHT22;2619;47.868;11.892;2023-05-23T06:26:00;19.50;99.90
5200;DHT22;2619;47.868;11.892;2023-05-23T06:28:26;19.80;99.90
5200;DHT22;2619;47.868;11.892;2023-05-23T06:30:51;19.70;99.90
5200;DHT22;2619;47.868;11.892;2023-05-23T06:33:17;19.60;99.90
5200;DHT22;2619;47.868;11.892;2023-05-23T06:35:43;19.30;99.90
5200;DHT22;2619;47.868;11.892;2023-05-23T06:38:08;19.00;99.90
5200;DHT22;2619;47.868;11.892;2023-05-23T06:40:34;18.70;99.90
5200;DHT22;2619;47.868;11.892;2023-05-23T06:42:59;18.30;99.90
5200;DHT22;2619;47.868;11.892;2023-05-23T06:45:25;17.90;99.90
5200;DHT22;2619;47.868;11.892;2023-05-23T06:47:50;17.60;99.90
5200;DHT22;2619;47.868;11.892;2023-05-23T06:50:17;17.40;99.90
5200;DHT22;2619;47.868;11.892;2023-05-23T06:52:45;17.30;99.90
5200;DHT22;2619;47.868;11.892;2023-05-23T06:55:11;17.20;99.90
5200;DHT22;2619;47.868;11.892;2023-05-23T06:57:42;17.10;99.90
5200;DHT22;2619;47.868;11.892;2023-05-23T07:00:08;17.10;99.90
5200;DHT22;2619;47.868;11.892;2023-05-23T07:02:34;17.10;99.90
5200;DHT22;2619;47.868;11.892;2023-05-23T07:05:00;17.20;99.90
5200;DHT22;2619;47.868;11.892;2023-05-23T07:07:25;17.60;99.90
5200;DHT22;2619;47.868;11.892;2023-05-23T07:09:51;18.30;99.90
5200;DHT22;2619;47.868;11.892;2023-05-23T07:12:16;19.40;99.90
5200;DHT22;2619;47.868;11.892;2023-05-23T07:14:42;20.30;99.90
5200;DHT22;2619;47.868;11.892;2023-05-23T07:17:07;21.10;99.90
5200;DHT22;2619;47.868;11.892;2023-05-23T07:19:33;21.60;99.90
5200;DHT22;2619;47.868;11.892;2023-05-23T07:21:58;22.10;99.90
5200;DHT22;2619;47.868;11.892;2023-05-23T07:24:24;22.30;99.90
5200;DHT22;2619;47.868;11.892;2023-05-23T07:26:50;22.40;99.90
5200;DHT22;2619;47.868;11.892;2023-05-23T07:29:15;22.40;99.90
5200;DHT22;2619;47.868;11.892;2023-05-23T07:31:41;22.10;99.90
5200;DHT22;2619;47.868;11.892;2023-05-23T07:34:06;21.70;99.90
5200;DHT22;2619;47.868;11.892;2023-05-23T07:36:32;21.50;99.90
5200;DHT22;2619;47.868;11.892;2023-05-23T07:39:00;21.50;99.90
5200;DHT22;2619;47.868;11.892;2023-05-23T07:41:25;21.70;99.90
5200;DHT22;2619;47.868;11.892;2023-05-23T07:43:51;21.80;99.90
5200;DHT22;2619;47.868;11.892;2023-05-23T07:46:16;21.60;99.90
5200;DHT22;2619;47.868;11.892;2023-05-23T07:48:42;21.80;99.90
5200;DHT22;2619;47.868;11.892;2023-05-23T07:51:08;21.80;99.90
5200;DHT22;2619;47.868;11.892;2023-05-23T07:53:33;22.00;99.90
5200;DHT22;2619;47.868;11.892;2023-05-23T07:56:00;22.00;99.90
5200;DHT22;2619;47.868;11.892;2023-05-23T07:58:25;22.30;99.90
5200;DHT22;2619;47.868;11.892;2023-05-23T08:00:51;22.70;99.90
5200;DHT22;2619;47.868;11.892;2023-05-23T08:03:16;23.10;99.90
5200;DHT22;2619;47.868;11.892;2023-05-23T08:05:43;23.20;99.90
5200;DHT22;2619;47.868;11.892;2023-05-23T08:08:09;23.30;99.90
5200;DHT22;2619;47.868;11.892;2023-05-23T08:10:34;23.50;99.90
5200;DHT22;2619;47.868;11.892;2023-05-23T08:13:00;23.40;99.90
5200;DHT22;2619;47.868;11.892;2023-05-23T08:15:31;23.40;99.90
5200;DHT22;2619;47.868;11.892;2023-05-23T08:17:57;23.10;99.90
5200;DHT22;2619;47.868;11.892;2023-05-23T08:20:23;22.90;99.90
5200;DHT22;2619;47.868;11.892;2023-05-23T08:22:59;23.10;99.90
5200;DHT22;2619;47.868;11.892;2023-05-23T08:25:26;23.20;99.90
5200;DHT22;2619;47.868;11.892;2023-05-23T08:27:58;23.30;99.90
5200;DHT22;2619;47.868;11.892;2023-05-23T08:30:25;22.80;99.90
5200;DHT22;2619;47.868;11.892;2023-05-23T08:32:54;22.30;99.90
5200;DHT22;2619;47.868;11.892;2023-05-23T08:35:20;21.80;99.90
5200;DHT22;2619;47.868;11.892;2023-05-23T08:37:47;21.60;99.90
5200;DHT22;2619;47.868;11.892;2023-05-23T08:40:17;21.40;99.90
5200;DHT22;2619;47.868;11.892;2023-05-23T08:42:43;21.20;99.90
5200;DHT22;2619;47.868;11.892;2023-05-23T08:45:09;21.00;99.90
5200;DHT22;2619;47.868;11.892;2023-05-23T08:47:36;21.00;99.90
5200;DHT22;2619;47.868;11.892;2023-05-23T08:50:13;21.10;99.90
5200;DHT22;2619;47.868;11.892;2023-05-23T08:52:57;21.60;99.90
5200;DHT22;2619;47.868;11.892;2023-05-23T08:55:26;21.90;99.90
5200;DHT22;2619;47.868;11.892;2023-05-23T08:57:57;22.20;99.90
5200;DHT22;2619;47.868;11.892;2023-05-23T09:00:25;22.50;99.90
5200;DHT22;2619;47.868;11.892;2023-05-23T09:02:51;22.70;99.90
5200;DHT22;2619;47.868;11.892;2023-05-23T09:05:17;23.10;99.90
5200;DHT22;2619;47.868;11.892;2023-05-23T09:07:45;23.50;99.90
5200;DHT22;2619;47.868;11.892;2023-05-23T09:10:12;23.60;99.90
5200;DHT22;2619;47.868;11.892;2023-05-23T09:12:38;23.70;99.90
5200;DHT22;2619;47.868;11.892;2023-05-23T09:15:05;23.50;99.90
5200;DHT22;2619;47.868;11.892;2023-05-23T09:17:32;23.10;99.90
5200;DHT22;2619;47.868;11.892;2023-05-23T09:19:58;23.00;99.90
5200;DHT22;2619;47.868;11.892;2023-05-23T09:22:25;22.80;99.90
5200;DHT22;2619;47.868;11.892;2023-05-23T09:24:52;22.80;99.90
5200;DHT22;2619;47.868;11.892;2023-05-23T09:27:18;22.70;99.90
5200;DHT22;2619;47.868;11.892;2023-05-23T09:29:44;22.40;99.90
5200;DHT22;2619;47.868;11.892;2023-05-23T09:32:13;21.60;99.90
5200;DHT22;2619;47.868;11.892;2023-05-23T09:34:58;20.70;99.90
5200;DHT22;2619;47.868;11.892;2023-05-23T09:37:44;20.00;99.90
5200;DHT22;2619;47.868;11.892;2023-05-23T09:40:12;19.50;99.90
5200;DHT22;2619;47.868;11.892;2023-05-23T09:42:42;19.40;99.90
5200;DHT22;2619;47.868;11.892;2023-05-23T09:45:09;19.40;99.90
5200;DHT22;2619;47.868;11.892;2023-05-23T09:47:35;19.50;99.90
5200;DHT22;2619;47.868;11.892;2023-05-23T09:50:00;19.70;99.90
5200;DHT22;2619;47.868;11.892;2023-05-23T09:52:26;19.80;99.90
5200;DHT22;2619;47.868;11.892;2023-05-23T09:54:53;20.00;99.90
5200;DHT22;2619;47.868;11.892;2023-05-23T09:57:21;20.60;99.90
5200;DHT22;2619;47.868;11.892;2023-05-23T09:59:52;21.50;99.90
5200;DHT22;2619;47.868;11.892;2023-05-23T10:05:08;22.70;99.90
5200;DHT22;2619;47.868;11.892;2023-05-23T10:07:36;22.40;99.90
5200;DHT22;2619;47.868;11.892;2023-05-23T10:10:03;21.50;99.90
5200;DHT22;2619;47.868;11.892;2023-05-23T10:12:46;20.30;99.90
5200;DHT22;2619;47.868;11.892;2023-05-23T10:15:14;19.70;99.90
5200;DHT22;2619;47.868;11.892;2023-05-23T10:20:15;19.10;99.90
5200;DHT22;2619;47.868;11.892;2023-05-23T10:22:41;19.00;99.90
5200;DHT22;2619;47.868;11.892;2023-05-23T10:25:07;19.00;99.90
5200;DHT22;2619;47.868;11.892;2023-05-23T10:27:38;18.90;99.90
5200;DHT22;2619;47.868;11.892;2023-05-23T10:30:08;18.80;99.90
5200;DHT22;2619;47.868;11.892;2023-05-23T10:32:36;18.60;99.90
5200;DHT22;2619;47.868;11.892;2023-05-23T10:35:23;18.30;99.90
5200;DHT22;2619;47.868;11.892;2023-05-23T10:38:06;18.00;99.90
5200;DHT22;2619;47.868;11.892;2023-05-23T10:43:28;17.80;99.90
5200;DHT22;2619;47.868;11.892;2023-05-23T10:45:55;17.60;99.90
5200;DHT22;2619;47.868;11.892;2023-05-23T10:48:34;17.50;99.90
5200;DHT22;2619;47.868;11.892;2023-05-23T10:53:36;17.50;99.90
5200;DHT22;2619;47.868;11.892;2023-05-23T10:56:04;17.50;99.90
5200;DHT22;2619;47.868;11.892;2023-05-23T10:58:32;17.40;99.90
5200;DHT22;2619;47.868;11.892;2023-05-23T11:01:06;17.40;99.90
5200;DHT22;2619;47.868;11.892;2023-05-23T11:06:36;17.60;99.90
5200;DHT22;2619;47.868;11.892;2023-05-23T11:09:04;17.80;99.90
5200;DHT22;2619;47.868;11.892;2023-05-23T11:19:37;17.70;99.90
5200;DHT22;2619;47.868;11.892;2023-05-23T11:22:07;17.60;99.90
5200;DHT22;2619;47.868;11.892;2023-05-23T11:24:52;17.30;99.90
5200;DHT22;2619;47.868;11.892;2023-05-23T11:27:39;17.20;99.90
5200;DHT22;2619;47.868;11.892;2023-05-23T11:30:15;17.10;99.90
5200;DHT22;2619;47.868;11.892;2023-05-23T11:32:48;17.00;99.90
5200;DHT22;2619;47.868;11.892;2023-05-23T11:35:15;17.00;99.90
5200;DHT22;2619;47.868;11.892;2023-05-23T11:37:42;16.70;99.90
5200;DHT22;2619;47.868;11.892;2023-05-23T11:40:31;16.10;99.90
5200;DHT22;2619;47.868;11.892;2023-05-23T11:42:57;15.50;99.90
5200;DHT22;2619;47.868;11.892;2023-05-23T11:45:24;15.10;99.90
5200;DHT22;2619;47.868;11.892;2023-05-23T11:47:50;15.00;99.90
5200;DHT22;2619;47.868;11.892;2023-05-23T11:50:15;14.90;99.90
5200;DHT22;2619;47.868;11.892;2023-05-23T11:52:41;14.90;99.90
5200;DHT22;2619;47.868;11.892;2023-05-23T11:55:08;14.90;99.90
5200;DHT22;2619;47.868;11.892;2023-05-23T11:57:37;14.90;99.90
5200;DHT22;2619;47.868;11.892;2023-05-23T12:00:06;14.90;99.90
5200;DHT22;2619;47.868;11.892;2023-05-23T12:02:40;15.00;99.90
5200;DHT22;2619;47.868;11.892;2023-05-23T12:05:11;15.10;99.90
5200;DHT22;2619;47.868;11.892;2023-05-23T12:10:08;15.30;99.90
5200;DHT22;2619;47.868;11.892;2023-05-23T12:12:34;15.40;99.90
5200;DHT22;2619;47.868;11.892;2023-05-23T12:15:00;15.50;99.90
5200;DHT22;2619;47.868;11.892;2023-05-23T12:17:25;15.60;99.90
5200;DHT22;2619;47.868;11.892;2023-05-23T12:19:52;15.70;99.90
5200;DHT22;2619;47.868;11.892;2023-05-23T12:22:24;15.60;99.90
5200;DHT22;2619;47.868;11.892;2023-05-23T12:24:53;15.60;99.90
5200;DHT22;2619;47.868;11.892;2023-05-23T12:27:29;15.70;99.90
5200;DHT22;2619;47.868;11.892;2023-05-23T12:32:45;16.10;99.90
5200;DHT22;2619;47.868;11.892;2023-05-23T12:35:14;16.20;99.90
5200;DHT22;2619;47.868;11.892;2023-05-23T12:37:42;16.50;99.90
5200;DHT22;2619;47.868;11.892;2023-05-23T12:40:15;16.90;99.90
5200;DHT22;2619;47.868;11.892;2023-05-23T12:42:52;17.20;99.90
5200;DHT22;2619;47.868;11.892;2023-05-23T12:45:31;17.30;99.90
5200;DHT22;2619;47.868;11.892;2023-05-23T12:47:57;17.20;99.90
5200;DHT22;2619;47.868;11.892;2023-05-23T12:50:23;17.20;99.90
5200;DHT22;2619;47.868;11.892;2023-05-23T12:52:49;16.90;99.90
5200;DHT22;2619;47.868;11.892;2023-05-23T12:55:14;16.90;99.90
5200;DHT22;2619;47.868;11.892;2023-05-23T12:57:40;16.90;99.90
5200;DHT22;2619;47.868;11.892;2023-05-23T13:00:06;16.90;99.90
5200;DHT22;2619;47.868;11.892;2023-05-23T13:02:32;17.10;99.90
5200;DHT22;2619;47.868;11.892;2023-05-23T13:04:58;17.00;99.90
5200;DHT22;2619;47.868;11.892;2023-05-23T13:07:23;17.00;99.90
5200;DHT22;2619;47.868;11.892;2023-05-23T13:09:49;17.10;99.90
5200;DHT22;2619;47.868;11.892;2023-05-23T13:12:14;17.40;99.90
5200;DHT22;2619;47.868;11.892;2023-05-23T13:14:40;17.60;99.90
5200;DHT22;2619;47.868;11.892;2023-05-23T13:17:06;17.60;99.90
5200;DHT22;2619;47.868;11.892;2023-05-23T13:19:32;18.00;99.90
5200;DHT22;2619;47.868;11.892;2023-05-23T13:21:57;18.30;99.90
5200;DHT22;2619;47.868;11.892;2023-05-23T13:24:25;18.50;99.90
5200;DHT22;2619;47.868;11.892;2023-05-23T13:26:50;18.60;99.90
5200;DHT22;2619;47.868;11.892;2023-05-23T13:29:16;18.70;99.90
5200;DHT22;2619;47.868;11.892;2023-05-23T13:31:41;18.90;99.90
5200;DHT22;2619;47.868;11.892;2023-05-23T13:34:07;19.10;99.90
5200;DHT22;2619;47.868;11.892;2023-05-23T13:36:33;18.60;99.90
5200;DHT22;2619;47.868;11.892;2023-05-23T13:39:00;18.50;99.90
5200;DHT22;2619;47.868;11.892;2023-05-23T13:41:25;18.40;99.90
5200;DHT22;2619;47.868;11.892;2023-05-23T13:43:51;18.20;99.90
5200;DHT22;2619;47.868;11.892;2023-05-23T13:46:17;18.00;99.90
5200;DHT22;2619;47.868;11.892;2023-05-23T13:48:42;18.10;99.90
5200;DHT22;2619;47.868;11.892;2023-05-23T13:51:08;18.00;99.90
5200;DHT22;2619;47.868;11.892;2023-05-23T13:53:34;17.60;99.90
5200;DHT22;2619;47.868;11.892;2023-05-23T13:56:00;17.40;99.90
5200;DHT22;2619;47.868;11.892;2023-05-23T13:58:26;17.10;99.90
5200;DHT22;2619;47.868;11.892;2023-05-23T14:00:51;17.00;99.90
5200;DHT22;2619;47.868;11.892;2023-05-23T14:03:17;16.80;99.90
5200;DHT22;2619;47.868;11.892;2023-05-23T14:05:44;16.80;99.90
5200;DHT22;2619;47.868;11.892;2023-05-23T14:08:09;16.70;99.90
5200;DHT22;2619;47.868;11.892;2023-05-23T14:10:38;16.70;99.90
5200;DHT22;2619;47.868;11.892;2023-05-23T14:13:05;16.70;99.90
5200;DHT22;2619;47.868;11.892;2023-05-23T14:15:32;16.70;99.90
5200;DHT22;2619;47.868;11.892;2023-05-23T14:17:58;16.60;99.90
5200;DHT22;2619;47.868;11.892;2023-05-23T14:20:23;16.60;99.90
5200;DHT22;2619;47.868;11.892;2023-05-23T14:22:49;16.40;99.90
5200;DHT22;2619;47.868;11.892;2023-05-23T14:25:16;16.30;99.90
5200;DHT22;2619;47.868;11.892;2023-05-23T14:27:41;16.20;99.90
5200;DHT22;2619;47.868;11.892;2023-05-23T14:30:08;16.10;99.90
5200;DHT22;2619;47.868;11.892;2023-05-23T14:32:33;16.00;99.90
5200;DHT22;2619;47.868;11.892;2023-05-23T14:35:07;16.00;99.90
5200;DHT22;2619;47.868;11.892;2023-05-23T14:37:33;16.00;99.90
5200;DHT22;2619;47.868;11.892;2023-05-23T14:39:59;15.80;99.90
5200;DHT22;2619;47.868;11.892;2023-05-23T14:42:24;15.70;99.90
5200;DHT22;2619;47.868;11.892;2023-05-23T14:44:54;15.80;99.90
5200;DHT22;2619;47.868;11.892;2023-05-23T14:47:20;15.90;99.90
5200;DHT22;2619;47.868;11.892;2023-05-23T14:49:46;16.00;99.90
5200;DHT22;2619;47.868;11.892;2023-05-23T14:52:12;16.00;99.90
5200;DHT22;2619;47.868;11.892;2023-05-23T14:54:38;16.00;99.90
5200;DHT22;2619;47.868;11.892;2023-05-23T14:57:06;16.00;99.90
5200;DHT22;2619;47.868;11.892;2023-05-23T14:59:33;16.10;99.90
5200;DHT22;2619;47.868;11.892;2023-05-23T15:01:59;16.10;99.90
5200;DHT22;2619;47.868;11.892;2023-05-23T15:04:25;16.10;99.90
5200;DHT22;2619;47.868;11.892;2023-05-23T15:06:51;16.20;99.90
5200;DHT22;2619;47.868;11.892;2023-05-23T15:09:16;16.20;99.90
5200;DHT22;2619;47.868;11.892;2023-05-23T15:11:43;16.30;99.90
5200;DHT22;2619;47.868;11.892;2023-05-23T15:14:10;16.30;99.90
5200;DHT22;2619;47.868;11.892;2023-05-23T15:16:36;16.40;99.90
5200;DHT22;2619;47.868;11.892;2023-05-23T15:19:02;16.60;99.90
5200;DHT22;2619;47.868;11.892;2023-05-23T15:21:27;16.90;99.90
5200;DHT22;2619;47.868;11.892;2023-05-23T15:23:53;17.20;99.90
5200;DHT22;2619;47.868;11.892;2023-05-23T15:26:19;17.30;99.90
5200;DHT22;2619;47.868;11.892;2023-05-23T15:28:44;17.60;99.90
5200;DHT22;2619;47.868;11.892;2023-05-23T15:31:10;17.70;99.90
5200;DHT22;2619;47.868;11.892;2023-05-23T15:33:35;17.70;99.90
5200;DHT22;2619;47.868;11.892;2023-05-23T15:36:01;17.70;99.90
5200;DHT22;2619;47.868;11.892;2023-05-23T15:38:27;17.40;99.90
5200;DHT22;2619;47.868;11.892;2023-05-23T15:40:52;17.30;99.90
5200;DHT22;2619;47.868;11.892;2023-05-23T15:43:20;17.30;99.90
5200;DHT22;2619;47.868;11.892;2023-05-23T15:45:48;17.30;99.90
5200;DHT22;2619;47.868;11.892;2023-05-23T15:48:14;17.30;99.90
5200;DHT22;2619;47.868;11.892;2023-05-23T15:50:39;17.20;99.90
5200;DHT22;2619;47.868;11.892;2023-05-23T15:53:05;17.00;99.90
5200;DHT22;2619;47.868;11.892;2023-05-23T15:55:30;16.90;99.90
5200;DHT22;2619;47.868;11.892;2023-05-23T15:57:56;16.90;99.90
5200;DHT22;2619;47.868;11.892;2023-05-23T16:00:22;16.70;99.90
5200;DHT22;2619;47.868;11.892;2023-05-23T16:02:47;16.50;99.90
5200;DHT22;2619;47.868;11.892;2023-05-23T16:05:13;16.40;99.90
5200;DHT22;2619;47.868;11.892;2023-05-23T16:07:38;16.10;99.90
5200;DHT22;2619;47.868;11.892;2023-05-23T16:10:04;16.00;99.90
5200;DHT22;2619;47.868;11.892;2023-05-23T16:12:30;15.90;99.90
5200;DHT22;2619;47.868;11.892;2023-05-23T16:14:56;15.70;99.90
5200;DHT22;2619;47.868;11.892;2023-05-23T16:17:22;15.70;99.90